sensor_id;sensor_type;location;lat;lon;timestamp;P1;durP1;ratioP1;P2;durP2;ratioP2
20002;SDS011;10162;41.600;23.806;2023-08-24T00:00:06;12.47;;;9.13;;
20002;SDS011;10162;41.600;23.806;2023-08-24T00:02:32;9.73;;;8.73;;
20002;SDS011;10162;41.600;23.806;2023-08-24T00:07:54;9.80;;;8.80;;
20002;SDS011;10162;41.600;23.806;2023-08-24T00:10:19;13.67;;;8.80;;
20002;SDS011;10162;41.600;23.806;2023-08-24T00:12:46;9.43;;;8.43;;
20002;SDS011;10162;41.600;23.806;2023-08-24T00:17:41;10.00;;;9.00;;
20002;SDS011;10162;41.600;23.806;2023-08-24T00:20:07;11.07;;;9.43;;
20002;SDS011;10162;41.600;23.806;2023-08-24T00:22:37;10.93;;;9.83;;
20002;SDS011;10162;41.600;23.806;2023-08-24T00:28:31;10.40;;;9.30;;
20002;SDS011;10162;41.600;23.806;2023-08-24T00:30:56;11.87;;;9.60;;
20002;SDS011;10162;41.600;23.806;2023-08-24T00:33:22;11.30;;;9.07;;
20002;SDS011;10162;41.600;23.806;2023-08-24T00:38:37;10.23;;;9.10;;
20002;SDS011;10162;41.600;23.806;2023-08-24T00:41:02;15.13;;;9.80;;
20002;SDS011;10162;41.600;23.806;2023-08-24T00:43:29;11.73;;;9.53;;
20002;SDS011;10162;41.600;23.806;2023-08-24T00:45:56;11.37;;;10.03;;
20002;SDS011;10162;41.600;23.806;2023-08-24T00:48:25;10.93;;;9.53;;
20002;SDS011;10162;41.600;23.806;2023-08-24T00:50:54;11.10;;;9.80;;
20002;SDS011;10162;41.600;23.806;2023-08-24T00:53:21;11.03;;;9.83;;
20002;SDS011;10162;41.600;23.806;2023-08-24T00:59:18;10.10;;;8.93;;
20002;SDS011;10162;41.600;23.806;2023-08-24T01:01:44;9.37;;;8.47;;
20002;SDS011;10162;41.600;23.806;2023-08-24T01:04:12;10.03;;;8.83;;
20002;SDS011;10162;41.600;23.806;2023-08-24T01:09:36;12.23;;;9.97;;
20002;SDS011;10162;41.600;23.806;2023-08-24T01:17:27;11.00;;;9.20;;
20002;SDS011;10162;41.600;23.806;2023-08-24T01:19:55;11.67;;;9.13;;
20002;SDS011;10162;41.600;23.806;2023-08-24T01:25:15;11.53;;;9.37;;
20002;SDS011;10162;41.600;23.806;2023-08-24T01:27:49;12.07;;;9.40;;
20002;SDS011;10162;41.600;23.806;2023-08-24T01:30:17;11.23;;;9.77;;
20002;SDS011;10162;41.600;23.806;2023-08-24T01:32:45;10.60;;;8.90;;
20002;SDS011;10162;41.600;23.806;2023-08-24T01:38:10;10.63;;;9.50;;
20002;SDS011;10162;41.600;23.806;2023-08-24T01:40:56;10.67;;;9.57;;
20002;SDS011;10162;41.600;23.806;2023-08-24T01:43:31;12.97;;;9.63;;
20002;SDS011;10162;41.600;23.806;2023-08-24T01:49:01;11.50;;;10.27;;
20002;SDS011;10162;41.600;23.806;2023-08-24T01:51:29;10.97;;;9.83;;
20002;SDS011;10162;41.600;23.806;2023-08-24T01:53:56;11.80;;;9.77;;
20002;SDS011;10162;41.600;23.806;2023-08-24T01:59:50;11.03;;;9.83;;
20002;SDS011;10162;41.600;23.806;2023-08-24T02:02:16;10.90;;;9.80;;
20002;SDS011;10162;41.600;23.806;2023-08-24T02:04:42;11.80;;;10.53;;
20002;SDS011;10162;41.600;23.806;2023-08-24T02:10:30;11.07;;;9.90;;
20002;SDS011;10162;41.600;23.806;2023-08-24T02:12:56;10.60;;;9.60;;
20002;SDS011;10162;41.600;23.806;2023-08-24T02:18:28;12.07;;;10.00;;
20002;SDS011;10162;41.600;23.806;2023-08-24T02:20:54;11.03;;;9.87;;
20002;SDS011;10162;41.600;23.806;2023-08-24T02:23:20;11.63;;;10.43;;
20002;SDS011;10162;41.600;23.806;2023-08-24T02:25:55;11.80;;;10.60;;
20002;SDS011;10162;41.600;23.806;2023-08-24T02:28:22;11.27;;;9.87;;
20002;SDS011;10162;41.600;23.806;2023-08-24T02:30:47;11.77;;;9.60;;
20002;SDS011;10162;41.600;23.806;2023-08-24T02:33:16;10.60;;;9.53;;
20002;SDS011;10162;41.600;23.806;2023-08-24T02:39:04;11.23;;;9.93;;
20002;SDS011;10162;41.600;23.806;2023-08-24T02:41:30;11.97;;;10.00;;
20002;SDS011;10162;41.600;23.806;2023-08-24T02:43:56;10.77;;;9.63;;
20002;SDS011;10162;41.600;23.806;2023-08-24T02:46:23;11.63;;;10.43;;
20002;SDS011;10162;41.600;23.806;2023-08-24T02:48:48;10.70;;;9.20;;
20002;SDS011;10162;41.600;23.806;2023-08-24T02:51:14;12.30;;;10.30;;
20002;SDS011;10162;41.600;23.806;2023-08-24T02:53:40;11.20;;;10.07;;
20002;SDS011;10162;41.600;23.806;2023-08-24T02:56:07;12.57;;;10.83;;
20002;SDS011;10162;41.600;23.806;2023-08-24T02:58:33;12.30;;;10.67;;
20002;SDS011;10162;41.600;23.806;2023-08-24T03:00:59;13.10;;;10.40;;
20002;SDS011;10162;41.600;23.806;2023-08-24T03:03:30;12.23;;;10.37;;
20002;SDS011;10162;41.600;23.806;2023-08-24T03:05:59;14.40;;;9.33;;
20002;SDS011;10162;41.600;23.806;2023-08-24T03:08:33;11.83;;;10.40;;
20002;SDS011;10162;41.600;23.806;2023-08-24T03:11:00;13.20;;;10.87;;
20002;SDS011;10162;41.600;23.806;2023-08-24T03:13:28;16.00;;;9.97;;
20002;SDS011;10162;41.600;23.806;2023-08-24T03:15:56;11.13;;;10.00;;
20002;SDS011;10162;41.600;23.806;2023-08-24T03:18:26;11.73;;;10.23;;
20002;SDS011;10162;41.600;23.806;2023-08-24T03:20:52;11.87;;;10.23;;
20002;SDS011;10162;41.600;23.806;2023-08-24T03:23:18;11.30;;;10.07;;
20002;SDS011;10162;41.600;23.806;2023-08-24T03:28:45;13.13;;;10.83;;
20002;SDS011;10162;41.600;23.806;2023-08-24T03:31:12;12.00;;;10.63;;
20002;SDS011;10162;41.600;23.806;2023-08-24T03:33:38;12.30;;;10.73;;
20002;SDS011;10162;41.600;23.806;2023-08-24T03:39:06;11.20;;;10.07;;
20002;SDS011;10162;41.600;23.806;2023-08-24T03:41:32;12.60;;;10.30;;
20002;SDS011;10162;41.600;23.806;2023-08-24T03:44:00;12.23;;;10.93;;
20002;SDS011;10162;41.600;23.806;2023-08-24T03:46:43;11.30;;;10.20;;
20002;SDS011;10162;41.600;23.806;2023-08-24T03:49:08;13.13;;;9.90;;
20002;SDS011;10162;41.600;23.806;2023-08-24T03:51:34;11.73;;;10.53;;
20002;SDS011;10162;41.600;23.806;2023-08-24T03:54:00;11.97;;;10.70;;
20002;SDS011;10162;41.600;23.806;2023-08-24T03:59:22;13.20;;;9.57;;
20002;SDS011;10162;41.600;23.806;2023-08-24T04:01:48;11.83;;;10.33;;
20002;SDS011;10162;41.600;23.806;2023-08-24T04:04:14;11.50;;;10.00;;
20002;SDS011;10162;41.600;23.806;2023-08-24T04:06:44;12.83;;;10.93;;
20002;SDS011;10162;41.600;23.806;2023-08-24T04:09:11;14.63;;;10.50;;
20002;SDS011;10162;41.600;23.806;2023-08-24T04:11:36;11.17;;;9.93;;
20002;SDS011;10162;41.600;23.806;2023-08-24T04:14:02;11.73;;;10.50;;
20002;SDS011;10162;41.600;23.806;2023-08-24T04:19:10;12.87;;;10.60;;
20002;SDS011;10162;41.600;23.806;2023-08-24T04:21:35;11.47;;;10.27;;
20002;SDS011;10162;41.600;23.806;2023-08-24T04:24:02;13.03;;;10.37;;
20002;SDS011;10162;41.600;23.806;2023-08-24T04:29:07;10.93;;;9.60;;
20002;SDS011;10162;41.600;23.806;2023-08-24T04:31:32;11.60;;;10.40;;
20002;SDS011;10162;41.600;23.806;2023-08-24T04:33:59;12.20;;;10.30;;
20002;SDS011;10162;41.600;23.806;2023-08-24T04:36:37;12.10;;;10.70;;
20002;SDS011;10162;41.600;23.806;2023-08-24T04:39:03;16.03;;;10.33;;
20002;SDS011;10162;41.600;23.806;2023-08-24T04:41:28;16.87;;;11.33;;
20002;SDS011;10162;41.600;23.806;2023-08-24T04:43:54;19.27;;;11.57;;
20002;SDS011;10162;41.600;23.806;2023-08-24T04:48:54;14.60;;;13.00;;
20002;SDS011;10162;41.600;23.806;2023-08-24T04:51:20;15.97;;;13.57;;
20002;SDS011;10162;41.600;23.806;2023-08-24T04:53:45;15.47;;;13.23;;
20002;SDS011;10162;41.600;23.806;2023-08-24T04:58:55;16.10;;;14.17;;
20002;SDS011;10162;41.600;23.806;2023-08-24T05:01:26;33.60;;;14.13;;
20002;SDS011;10162;41.600;23.806;2023-08-24T05:03:53;35.03;;;12.70;;
20002;SDS011;10162;41.600;23.806;2023-08-24T05:06:25;27.77;;;11.80;;
20002;SDS011;10162;41.600;23.806;2023-08-24T05:08:51;17.10;;;12.67;;
20002;SDS011;10162;41.600;23.806;2023-08-24T05:11:18;24.83;;;14.53;;
20002;SDS011;10162;41.600;23.806;2023-08-24T05:13:45;21.77;;;16.30;;
20002;SDS011;10162;41.600;23.806;2023-08-24T05:16:12;20.33;;;14.67;;
20002;SDS011;10162;41.600;23.806;2023-08-24T05:18:38;24.63;;;16.97;;
20002;SDS011;10162;41.600;23.806;2023-08-24T05:21:05;20.50;;;15.97;;
20002;SDS011;10162;41.600;23.806;2023-08-24T05:23:34;22.37;;;16.93;;
20002;SDS011;10162;41.600;23.806;2023-08-24T05:28:30;23.30;;;17.43;;
20002;SDS011;10162;41.600;23.806;2023-08-24T05:30:56;20.50;;;16.10;;
20002;SDS011;10162;41.600;23.806;2023-08-24T05:33:24;16.50;;;14.40;;
20002;SDS011;10162;41.600;23.806;2023-08-24T05:35:58;14.77;;;13.10;;
20002;SDS011;10162;41.600;23.806;2023-08-24T05:38:24;18.27;;;14.40;;
20002;SDS011;10162;41.600;23.806;2023-08-24T05:40:49;16.70;;;14.03;;
20002;SDS011;10162;41.600;23.806;2023-08-24T05:43:16;20.43;;;14.53;;
20002;SDS011;10162;41.600;23.806;2023-08-24T05:48:42;18.27;;;13.43;;
20002;SDS011;10162;41.600;23.806;2023-08-24T05:51:08;20.07;;;13.80;;
20002;SDS011;10162;41.600;23.806;2023-08-24T05:53:35;17.37;;;13.47;;
20002;SDS011;10162;41.600;23.806;2023-08-24T05:56:02;17.37;;;13.03;;
20002;SDS011;10162;41.600;23.806;2023-08-24T05:58:29;16.70;;;12.80;;
20002;SDS011;10162;41.600;23.806;2023-08-24T06:00:56;16.83;;;12.90;;
20002;SDS011;10162;41.600;23.806;2023-08-24T06:03:25;18.00;;;12.07;;
20002;SDS011;10162;41.600;23.806;2023-08-24T06:05:51;16.73;;;12.32;;
20002;SDS011;10162;41.600;23.806;2023-08-24T06:08:19;15.23;;;11.43;;
20002;SDS011;10162;41.600;23.806;2023-08-24T06:10:49;15.88;;;12.63;;
20002;SDS011;10162;41.600;23.806;2023-08-24T06:13:15;14.18;;;12.57;;
20002;SDS011;10162;41.600;23.806;2023-08-24T06:15:41;16.90;;;12.93;;
20002;SDS011;10162;41.600;23.806;2023-08-24T06:18:08;15.48;;;12.55;;
20002;SDS011;10162;41.600;23.806;2023-08-24T06:20:33;12.57;;;11.38;;
20002;SDS011;10162;41.600;23.806;2023-08-24T06:22:59;16.83;;;13.10;;
20002;SDS011;10162;41.600;23.806;2023-08-24T06:25:25;17.30;;;12.70;;
20002;SDS011;10162;41.600;23.806;2023-08-24T06:27:51;15.35;;;11.20;;
20002;SDS011;10162;41.600;23.806;2023-08-24T06:30:17;14.38;;;12.73;;
20002;SDS011;10162;41.600;23.806;2023-08-24T06:32:44;11.98;;;10.82;;
20002;SDS011;10162;41.600;23.806;2023-08-24T06:35:09;14.45;;;12.70;;
20002;SDS011;10162;41.600;23.806;2023-08-24T06:37:38;13.48;;;12.18;;
20002;SDS011;10162;41.600;23.806;2023-08-24T06:40:04;12.95;;;11.65;;
20002;SDS011;10162;41.600;23.806;2023-08-24T06:42:30;13.52;;;12.07;;
20002;SDS011;10162;41.600;23.806;2023-08-24T06:44:56;15.25;;;13.43;;
20002;SDS011;10162;41.600;23.806;2023-08-24T06:47:22;16.27;;;14.10;;
20002;SDS011;10162;41.600;23.806;2023-08-24T06:49:47;15.60;;;13.23;;
20002;SDS011;10162;41.600;23.806;2023-08-24T06:52:15;15.05;;;12.95;;
20002;SDS011;10162;41.600;23.806;2023-08-24T06:54:40;15.55;;;13.27;;
20002;SDS011;10162;41.600;23.806;2023-08-24T06:57:08;14.93;;;13.25;;
20002;SDS011;10162;41.600;23.806;2023-08-24T06:59:33;14.07;;;12.43;;
20002;SDS011;10162;41.600;23.806;2023-08-24T07:01:59;12.45;;;11.23;;
20002;SDS011;10162;41.600;23.806;2023-08-24T07:04:25;14.07;;;12.57;;
20002;SDS011;10162;41.600;23.806;2023-08-24T07:06:53;17.30;;;13.15;;
20002;SDS011;10162;41.600;23.806;2023-08-24T07:09:19;13.10;;;11.70;;
20002;SDS011;10162;41.600;23.806;2023-08-24T07:11:44;12.60;;;11.27;;
20002;SDS011;10162;41.600;23.806;2023-08-24T07:14:10;14.95;;;11.60;;
20002;SDS011;10162;41.600;23.806;2023-08-24T07:16:36;15.55;;;11.73;;
20002;SDS011;10162;41.600;23.806;2023-08-24T07:19:02;19.15;;;12.73;;
20002;SDS011;10162;41.600;23.806;2023-08-24T07:21:30;14.05;;;12.65;;
20002;SDS011;10162;41.600;23.806;2023-08-24T07:23:56;15.90;;;12.63;;
20002;SDS011;10162;41.600;23.806;2023-08-24T07:26:22;13.73;;;12.23;;
20002;SDS011;10162;41.600;23.806;2023-08-24T07:28:50;16.88;;;12.35;;
20002;SDS011;10162;41.600;23.806;2023-08-24T07:31:17;19.75;;;15.32;;
20002;SDS011;10162;41.600;23.806;2023-08-24T07:33:42;15.75;;;14.10;;
20002;SDS011;10162;41.600;23.806;2023-08-24T07:36:11;13.13;;;11.68;;
20002;SDS011;10162;41.600;23.806;2023-08-24T07:38:36;14.50;;;12.30;;
20002;SDS011;10162;41.600;23.806;2023-08-24T07:41:03;14.40;;;11.75;;
20002;SDS011;10162;41.600;23.806;2023-08-24T07:43:29;13.65;;;10.90;;
20002;SDS011;10162;41.600;23.806;2023-08-24T07:45:55;13.85;;;12.35;;
20002;SDS011;10162;41.600;23.806;2023-08-24T07:48:21;12.75;;;11.18;;
20002;SDS011;10162;41.600;23.806;2023-08-24T07:50:47;12.50;;;11.10;;
20002;SDS011;10162;41.600;23.806;2023-08-24T07:53:12;12.90;;;11.27;;
20002;SDS011;10162;41.600;23.806;2023-08-24T07:55:40;12.73;;;11.45;;
20002;SDS011;10162;41.600;23.806;2023-08-24T07:58:06;14.63;;;11.77;;
20002;SDS011;10162;41.600;23.806;2023-08-24T08:00:31;12.60;;;11.40;;
20002;SDS011;10162;41.600;23.806;2023-08-24T08:02:58;13.88;;;11.73;;
20002;SDS011;10162;41.600;23.806;2023-08-24T08:05:24;12.77;;;11.45;;
20002;SDS011;10162;41.600;23.806;2023-08-24T08:07:50;15.57;;;10.98;;
20002;SDS011;10162;41.600;23.806;2023-08-24T08:10:15;13.63;;;11.60;;
20002;SDS011;10162;41.600;23.806;2023-08-24T08:12:42;13.07;;;11.60;;
20002;SDS011;10162;41.600;23.806;2023-08-24T08:15:09;15.00;;;11.90;;
20002;SDS011;10162;41.600;23.806;2023-08-24T08:17:35;13.93;;;11.57;;
20002;SDS011;10162;41.600;23.806;2023-08-24T08:20:01;12.02;;;10.93;;
20002;SDS011;10162;41.600;23.806;2023-08-24T08:22:28;14.23;;;10.95;;
20002;SDS011;10162;41.600;23.806;2023-08-24T08:24:55;13.27;;;11.40;;
20002;SDS011;10162;41.600;23.806;2023-08-24T08:27:22;15.02;;;11.50;;
20002;SDS011;10162;41.600;23.806;2023-08-24T08:29:48;14.45;;;11.27;;
20002;SDS011;10162;41.600;23.806;2023-08-24T08:32:15;13.43;;;10.88;;
20002;SDS011;10162;41.600;23.806;2023-08-24T08:34:41;13.63;;;11.80;;
20002;SDS011;10162;41.600;23.806;2023-08-24T08:37:07;11.98;;;10.82;;
20002;SDS011;10162;41.600;23.806;2023-08-24T08:39:33;12.77;;;11.57;;
20002;SDS011;10162;41.600;23.806;2023-08-24T08:41:58;12.98;;;11.55;;
20002;SDS011;10162;41.600;23.806;2023-08-24T08:44:25;17.42;;;14.02;;
20002;SDS011;10162;41.600;23.806;2023-08-24T08:46:59;19.50;;;12.68;;
20002;SDS011;10162;41.600;23.806;2023-08-24T08:49:26;13.07;;;11.57;;
20002;SDS011;10162;41.600;23.806;2023-08-24T08:51:53;18.98;;;10.18;;
20002;SDS011;10162;41.600;23.806;2023-08-24T08:54:18;14.25;;;8.02;;
20002;SDS011;10162;41.600;23.806;2023-08-24T08:56:44;11.45;;;7.57;;
20002;SDS011;10162;41.600;23.806;2023-08-24T08:59:10;9.95;;;6.38;;
20002;SDS011;10162;41.600;23.806;2023-08-24T09:01:40;9.65;;;5.60;;
20002;SDS011;10162;41.600;23.806;2023-08-24T09:04:06;8.75;;;5.55;;
20002;SDS011;10162;41.600;23.806;2023-08-24T09:06:34;11.48;;;5.25;;
20002;SDS011;10162;41.600;23.806;2023-08-24T09:09:00;9.13;;;5.30;;
20002;SDS011;10162;41.600;23.806;2023-08-24T09:11:26;10.63;;;6.27;;
20002;SDS011;10162;41.600;23.806;2023-08-24T09:13:52;12.93;;;7.30;;
20002;SDS011;10162;41.600;23.806;2023-08-24T09:16:20;10.65;;;6.60;;
20002;SDS011;10162;41.600;23.806;2023-08-24T09:18:46;8.87;;;6.90;;
20002;SDS011;10162;41.600;23.806;2023-08-24T09:21:15;7.27;;;5.80;;
20002;SDS011;10162;41.600;23.806;2023-08-24T09:23:44;7.30;;;5.53;;
20002;SDS011;10162;41.600;23.806;2023-08-24T09:26:17;5.77;;;4.40;;
20002;SDS011;10162;41.600;23.806;2023-08-24T09:28:52;5.33;;;4.70;;
20002;SDS011;10162;41.600;23.806;2023-08-24T09:31:18;5.53;;;4.90;;
20002;SDS011;10162;41.600;23.806;2023-08-24T09:33:44;8.60;;;4.53;;
20002;SDS011;10162;41.600;23.806;2023-08-24T09:36:13;6.07;;;5.47;;
20002;SDS011;10162;41.600;23.806;2023-08-24T09:38:47;6.87;;;6.17;;
20002;SDS011;10162;41.600;23.806;2023-08-24T09:41:16;6.70;;;5.97;;
20002;SDS011;10162;41.600;23.806;2023-08-24T09:43:43;7.07;;;6.37;;
20002;SDS011;10162;41.600;23.806;2023-08-24T09:46:08;7.93;;;6.43;;
20002;SDS011;10162;41.600;23.806;2023-08-24T09:48:34;6.78;;;5.93;;
20002;SDS011;10162;41.600;23.806;2023-08-24T09:51:01;6.32;;;5.70;;
20002;SDS011;10162;41.600;23.806;2023-08-24T09:53:29;6.85;;;6.00;;
20002;SDS011;10162;41.600;23.806;2023-08-24T09:56:01;6.35;;;5.75;;
20002;SDS011;10162;41.600;23.806;2023-08-24T09:58:28;6.35;;;5.57;;
20002;SDS011;10162;41.600;23.806;2023-08-24T10:00:54;5.50;;;4.95;;
20002;SDS011;10162;41.600;23.806;2023-08-24T10:03:26;6.65;;;6.05;;
20002;SDS011;10162;41.600;23.806;2023-08-24T10:05:54;9.13;;;7.53;;
20002;SDS011;10162;41.600;23.806;2023-08-24T10:08:29;10.65;;;9.55;;
20002;SDS011;10162;41.600;23.806;2023-08-24T10:11:00;11.95;;;10.75;;
20002;SDS011;10162;41.600;23.806;2023-08-24T10:13:36;8.63;;;7.82;;
20002;SDS011;10162;41.600;23.806;2023-08-24T10:16:09;7.25;;;6.65;;
20002;SDS011;10162;41.600;23.806;2023-08-24T10:18:38;6.85;;;6.35;;
20002;SDS011;10162;41.600;23.806;2023-08-24T10:21:07;6.15;;;5.03;;
20002;SDS011;10162;41.600;23.806;2023-08-24T10:23:34;5.97;;;5.22;;
20002;SDS011;10162;41.600;23.806;2023-08-24T10:26:03;9.65;;;8.50;;
20002;SDS011;10162;41.600;23.806;2023-08-24T10:28:32;8.48;;;6.68;;
20002;SDS011;10162;41.600;23.806;2023-08-24T10:30:58;6.25;;;5.65;;
20002;SDS011;10162;41.600;23.806;2023-08-24T10:33:26;8.77;;;6.60;;
20002;SDS011;10162;41.600;23.806;2023-08-24T10:35:53;7.38;;;6.32;;
20002;SDS011;10162;41.600;23.806;2023-08-24T10:38:31;8.15;;;6.30;;
20002;SDS011;10162;41.600;23.806;2023-08-24T10:41:02;7.28;;;6.68;;
20002;SDS011;10162;41.600;23.806;2023-08-24T10:43:29;7.55;;;6.78;;
20002;SDS011;10162;41.600;23.806;2023-08-24T10:48:23;8.65;;;7.80;;
20002;SDS011;10162;41.600;23.806;2023-08-24T10:53:51;9.68;;;8.70;;
20002;SDS011;10162;41.600;23.806;2023-08-24T10:56:57;10.68;;;9.57;;
20002;SDS011;10162;41.600;23.806;2023-08-24T10:59:24;11.82;;;7.97;;
20002;SDS011;10162;41.600;23.806;2023-08-24T11:04:21;10.27;;;7.75;;
20002;SDS011;10162;41.600;23.806;2023-08-24T11:09:19;10.25;;;7.95;;
20002;SDS011;10162;41.600;23.806;2023-08-24T11:12:01;9.63;;;8.73;;
20002;SDS011;10162;41.600;23.806;2023-08-24T11:14:29;8.95;;;8.05;;
20002;SDS011;10162;41.600;23.806;2023-08-24T11:20:00;10.43;;;8.77;;
20002;SDS011;10162;41.600;23.806;2023-08-24T11:22:26;9.27;;;8.02;;
20002;SDS011;10162;41.600;23.806;2023-08-24T11:24:54;9.82;;;8.77;;
20002;SDS011;10162;41.600;23.806;2023-08-24T11:27:22;8.57;;;7.85;;
20002;SDS011;10162;41.600;23.806;2023-08-24T11:29:57;8.40;;;7.60;;
20002;SDS011;10162;41.600;23.806;2023-08-24T11:32:27;8.98;;;8.07;;
20002;SDS011;10162;41.600;23.806;2023-08-24T11:37:40;9.32;;;8.35;;
20002;SDS011;10162;41.600;23.806;2023-08-24T11:40:06;9.55;;;7.38;;
20002;SDS011;10162;41.600;23.806;2023-08-24T11:42:42;9.00;;;8.05;;
20002;SDS011;10162;41.600;23.806;2023-08-24T11:45:13;8.82;;;7.90;;
20002;SDS011;10162;41.600;23.806;2023-08-24T11:47:41;8.50;;;7.47;;
20002;SDS011;10162;41.600;23.806;2023-08-24T11:50:08;9.45;;;7.80;;
20002;SDS011;10162;41.600;23.806;2023-08-24T11:52:38;9.10;;;8.20;;
20002;SDS011;10162;41.600;23.806;2023-08-24T11:55:17;8.15;;;7.35;;
20002;SDS011;10162;41.600;23.806;2023-08-24T11:57:43;8.05;;;7.35;;
20002;SDS011;10162;41.600;23.806;2023-08-24T12:00:09;9.05;;;7.70;;
20002;SDS011;10162;41.600;23.806;2023-08-24T12:02:42;8.23;;;6.85;;
20002;SDS011;10162;41.600;23.806;2023-08-24T12:05:25;7.88;;;7.07;;
20002;SDS011;10162;41.600;23.806;2023-08-24T12:07:54;8.20;;;7.40;;
20002;SDS011;10162;41.600;23.806;2023-08-24T12:10:20;8.27;;;7.50;;
20002;SDS011;10162;41.600;23.806;2023-08-24T12:12:46;8.55;;;7.57;;
20002;SDS011;10162;41.600;23.806;2023-08-24T12:20:35;8.00;;;7.30;;
20002;SDS011;10162;41.600;23.806;2023-08-24T12:23:01;8.63;;;7.60;;
20002;SDS011;10162;41.600;23.806;2023-08-24T12:25:42;8.23;;;7.53;;
20002;SDS011;10162;41.600;23.806;2023-08-24T12:28:14;8.40;;;7.40;;
20002;SDS011;10162;41.600;23.806;2023-08-24T12:38:52;8.48;;;7.78;;
20002;SDS011;10162;41.600;23.806;2023-08-24T12:41:17;8.70;;;7.90;;
20002;SDS011;10162;41.600;23.806;2023-08-24T12:43:45;7.97;;;7.22;;
20002;SDS011;10162;41.600;23.806;2023-08-24T12:46:15;7.07;;;6.35;;
20002;SDS011;10162;41.600;23.806;2023-08-24T12:48:42;7.30;;;6.70;;
20002;SDS011;10162;41.600;23.806;2023-08-24T12:51:08;8.68;;;6.45;;
20002;SDS011;10162;41.600;23.806;2023-08-24T12:53:35;6.88;;;5.90;;
20002;SDS011;10162;41.600;23.806;2023-08-24T12:56:02;5.95;;;5.35;;
20002;SDS011;10162;41.600;23.806;2023-08-24T12:58:30;6.57;;;5.90;;
20002;SDS011;10162;41.600;23.806;2023-08-24T13:03:37;7.00;;;5.10;;
20002;SDS011;10162;41.600;23.806;2023-08-24T13:06:06;5.50;;;4.75;;
20002;SDS011;10162;41.600;23.806;2023-08-24T13:08:32;7.30;;;4.70;;
20002;SDS011;10162;41.600;23.806;2023-08-24T13:10:58;5.35;;;4.68;;
20002;SDS011;10162;41.600;23.806;2023-08-24T13:13:24;5.75;;;4.82;;
20002;SDS011;10162;41.600;23.806;2023-08-24T13:15:50;6.63;;;5.75;;
20002;SDS011;10162;41.600;23.806;2023-08-24T13:18:16;8.85;;;6.00;;
20002;SDS011;10162;41.600;23.806;2023-08-24T13:20:42;7.80;;;6.18;;
20002;SDS011;10162;41.600;23.806;2023-08-24T13:23:08;8.77;;;6.95;;
20002;SDS011;10162;41.600;23.806;2023-08-24T13:25:41;8.25;;;7.25;;
20002;SDS011;10162;41.600;23.806;2023-08-24T13:28:07;9.07;;;7.32;;
20002;SDS011;10162;41.600;23.806;2023-08-24T13:30:32;13.75;;;11.18;;
20002;SDS011;10162;41.600;23.806;2023-08-24T13:32:59;25.00;;;22.17;;
20002;SDS011;10162;41.600;23.806;2023-08-24T13:38:01;16.92;;;14.68;;
20002;SDS011;10162;41.600;23.806;2023-08-24T13:40:27;13.13;;;11.40;;
20002;SDS011;10162;41.600;23.806;2023-08-24T13:42:54;12.98;;;10.63;;
20002;SDS011;10162;41.600;23.806;2023-08-24T13:45:20;12.70;;;9.43;;
20002;SDS011;10162;41.600;23.806;2023-08-24T13:47:47;11.63;;;8.98;;
20002;SDS011;10162;41.600;23.806;2023-08-24T13:50:12;10.13;;;8.35;;
20002;SDS011;10162;41.600;23.806;2023-08-24T13:52:38;10.02;;;8.70;;
20002;SDS011;10162;41.600;23.806;2023-08-24T13:55:14;9.80;;;8.18;;
20002;SDS011;10162;41.600;23.806;2023-08-24T13:57:41;9.30;;;8.30;;
20002;SDS011;10162;41.600;23.806;2023-08-24T14:00:07;9.18;;;8.18;;
20002;SDS011;10162;41.600;23.806;2023-08-24T14:02:38;8.38;;;7.57;;
20002;SDS011;10162;41.600;23.806;2023-08-24T14:05:20;9.52;;;8.52;;
20002;SDS011;10162;41.600;23.806;2023-08-24T14:07:46;9.60;;;8.70;;
20002;SDS011;10162;41.600;23.806;2023-08-24T14:10:11;9.60;;;8.55;;
20002;SDS011;10162;41.600;23.806;2023-08-24T14:12:37;10.00;;;9.00;;
20002;SDS011;10162;41.600;23.806;2023-08-24T14:15:03;12.40;;;9.07;;
20002;SDS011;10162;41.600;23.806;2023-08-24T14:17:30;9.75;;;8.75;;
20002;SDS011;10162;41.600;23.806;2023-08-24T14:19:55;10.25;;;8.38;;
20002;SDS011;10162;41.600;23.806;2023-08-24T14:22:21;7.97;;;7.25;;
20002;SDS011;10162;41.600;23.806;2023-08-24T14:24:47;8.43;;;7.53;;
20002;SDS011;10162;41.600;23.806;2023-08-24T14:27:13;7.75;;;7.05;;
20002;SDS011;10162;41.600;23.806;2023-08-24T14:29:39;6.65;;;6.05;;
20002;SDS011;10162;41.600;23.806;2023-08-24T14:32:05;7.10;;;6.45;;
20002;SDS011;10162;41.600;23.806;2023-08-24T14:34:30;7.50;;;6.80;;
20002;SDS011;10162;41.600;23.806;2023-08-24T14:40:01;6.95;;;6.30;;
20002;SDS011;10162;41.600;23.806;2023-08-24T14:42:29;7.43;;;6.55;;
20002;SDS011;10162;41.600;23.806;2023-08-24T14:47:57;9.23;;;7.30;;
20002;SDS011;10162;41.600;23.806;2023-08-24T14:50:22;7.90;;;7.10;;
20002;SDS011;10162;41.600;23.806;2023-08-24T14:52:48;7.40;;;6.70;;
20002;SDS011;10162;41.600;23.806;2023-08-24T14:58:13;7.40;;;6.70;;
20002;SDS011;10162;41.600;23.806;2023-08-24T15:00:39;8.77;;;7.25;;
20002;SDS011;10162;41.600;23.806;2023-08-24T15:03:04;7.50;;;6.80;;
20002;SDS011;10162;41.600;23.806;2023-08-24T15:05:43;7.97;;;7.28;;
20002;SDS011;10162;41.600;23.806;2023-08-24T15:08:13;8.80;;;7.13;;
20002;SDS011;10162;41.600;23.806;2023-08-24T15:10:39;7.82;;;6.85;;
20002;SDS011;10162;41.600;23.806;2023-08-24T15:13:05;10.23;;;7.40;;
20002;SDS011;10162;41.600;23.806;2023-08-24T15:18:00;9.45;;;7.90;;
20002;SDS011;10162;41.600;23.806;2023-08-24T15:20:26;15.15;;;8.02;;
20002;SDS011;10162;41.600;23.806;2023-08-24T15:22:52;9.32;;;8.18;;
20002;SDS011;10162;41.600;23.806;2023-08-24T15:25:21;10.68;;;9.55;;
20002;SDS011;10162;41.600;23.806;2023-08-24T15:27:47;9.70;;;8.80;;
20002;SDS011;10162;41.600;23.806;2023-08-24T15:30:13;9.90;;;8.85;;
20002;SDS011;10162;41.600;23.806;2023-08-24T15:32:39;28.23;;;25.17;;
20002;SDS011;10162;41.600;23.806;2023-08-24T15:35:14;35.50;;;29.48;;
20002;SDS011;10162;41.600;23.806;2023-08-24T15:37:39;14.90;;;10.25;;
20002;SDS011;10162;41.600;23.806;2023-08-24T15:40:05;10.10;;;9.02;;
20002;SDS011;10162;41.600;23.806;2023-08-24T15:42:32;11.73;;;9.00;;
20002;SDS011;10162;41.600;23.806;2023-08-24T15:45:10;10.15;;;8.93;;
20002;SDS011;10162;41.600;23.806;2023-08-24T15:47:36;10.68;;;8.88;;
20002;SDS011;10162;41.600;23.806;2023-08-24T15:50:02;11.23;;;9.02;;
20002;SDS011;10162;41.600;23.806;2023-08-24T15:52:27;10.25;;;8.57;;
20002;SDS011;10162;41.600;23.806;2023-08-24T15:54:53;11.20;;;8.93;;
20002;SDS011;10162;41.600;23.806;2023-08-24T15:57:19;10.40;;;9.23;;
20002;SDS011;10162;41.600;23.806;2023-08-24T15:59:45;10.45;;;9.45;;
20002;SDS011;10162;41.600;23.806;2023-08-24T16:02:12;10.80;;;9.73;;
20002;SDS011;10162;41.600;23.806;2023-08-24T16:04:38;12.25;;;9.90;;
20002;SDS011;10162;41.600;23.806;2023-08-24T16:07:04;11.18;;;9.98;;
20002;SDS011;10162;41.600;23.806;2023-08-24T16:09:30;10.82;;;9.10;;
20002;SDS011;10162;41.600;23.806;2023-08-24T16:11:56;10.57;;;9.52;;
20002;SDS011;10162;41.600;23.806;2023-08-24T16:14:21;9.73;;;8.82;;
20002;SDS011;10162;41.600;23.806;2023-08-24T16:16:58;9.32;;;8.13;;
20002;SDS011;10162;41.600;23.806;2023-08-24T16:19:25;9.98;;;8.27;;